sensor_id;sensor_type;location;lat;lon;timestamp;P1;durP1;ratioP1;P2;durP2;ratioP2
42094;SDS011;27753;55.724;37.612;2023-05-10T00:02:16;15.30;;;7.57;;
42094;SDS011;27753;55.724;37.612;2023-05-10T00:04:42;16.65;;;7.85;;
42094;SDS011;27753;55.724;37.612;2023-05-10T00:07:08;15.38;;;7.13;;
42094;SDS011;27753;55.724;37.612;2023-05-10T00:09:35;16.67;;;7.50;;
42094;SDS011;27753;55.724;37.612;2023-05-10T00:12:01;23.27;;;7.25;;
42094;SDS011;27753;55.724;37.612;2023-05-10T00:14:26;15.52;;;7.57;;
42094;SDS011;27753;55.724;37.612;2023-05-10T00:16:52;16.10;;;7.28;;
42094;SDS011;27753;55.724;37.612;2023-05-10T00:19:18;13.80;;;7.28;;
42094;SDS011;27753;55.724;37.612;2023-05-10T00:21:44;12.25;;;6.93;;
42094;SDS011;27753;55.724;37.612;2023-05-10T00:24:10;11.75;;;7.05;;
42094;SDS011;27753;55.724;37.612;2023-05-10T00:26:36;12.27;;;6.32;;
42094;SDS011;27753;55.724;37.612;2023-05-10T00:29:01;13.50;;;6.60;;
42094;SDS011;27753;55.724;37.612;2023-05-10T00:31:27;11.90;;;7.57;;
42094;SDS011;27753;55.724;37.612;2023-05-10T00:33:54;12.63;;;6.38;;
42094;SDS011;27753;55.724;37.612;2023-05-10T00:36:20;12.57;;;6.85;;
42094;SDS011;27753;55.724;37.612;2023-05-10T00:38:46;9.23;;;6.85;;
42094;SDS011;27753;55.724;37.612;2023-05-10T00:41:11;13.07;;;6.63;;
42094;SDS011;27753;55.724;37.612;2023-05-10T00:43:37;13.25;;;7.32;;
42094;SDS011;27753;55.724;37.612;2023-05-10T00:46:04;10.98;;;6.32;;
42094;SDS011;27753;55.724;37.612;2023-05-10T00:48:30;19.48;;;7.50;;
42094;SDS011;27753;55.724;37.612;2023-05-10T00:50:57;11.90;;;6.60;;
42094;SDS011;27753;55.724;37.612;2023-05-10T00:53:23;16.25;;;7.10;;
42094;SDS011;27753;55.724;37.612;2023-05-10T00:55:49;14.30;;;6.47;;
42094;SDS011;27753;55.724;37.612;2023-05-10T00:58:16;14.80;;;6.88;;
42094;SDS011;27753;55.724;37.612;2023-05-10T01:00:42;18.25;;;6.45;;
42094;SDS011;27753;55.724;37.612;2023-05-10T01:03:11;10.38;;;6.60;;
42094;SDS011;27753;55.724;37.612;2023-05-10T01:05:37;8.73;;;5.97;;
42094;SDS011;27753;55.724;37.612;2023-05-10T01:08:03;11.48;;;6.40;;
42094;SDS011;27753;55.724;37.612;2023-05-10T01:10:29;19.20;;;7.25;;
42094;SDS011;27753;55.724;37.612;2023-05-10T01:12:56;11.82;;;5.50;;
42094;SDS011;27753;55.724;37.612;2023-05-10T01:17:50;10.18;;;5.90;;
42094;SDS011;27753;55.724;37.612;2023-05-10T01:20:17;8.35;;;5.85;;
42094;SDS011;27753;55.724;37.612;2023-05-10T01:28:37;12.25;;;6.10;;
42094;SDS011;27753;55.724;37.612;2023-05-10T01:34:48;10.98;;;5.63;;
42094;SDS011;27753;55.724;37.612;2023-05-10T01:37:25;10.98;;;5.78;;
42094;SDS011;27753;55.724;37.612;2023-05-10T01:40:08;10.90;;;6.60;;
42094;SDS011;27753;55.724;37.612;2023-05-10T01:42:48;8.65;;;5.53;;
42094;SDS011;27753;55.724;37.612;2023-05-10T01:45:27;11.75;;;5.90;;
42094;SDS011;27753;55.724;37.612;2023-05-10T01:48:09;9.75;;;6.53;;
42094;SDS011;27753;55.724;37.612;2023-05-10T01:50:36;10.13;;;5.90;;
42094;SDS011;27753;55.724;37.612;2023-05-10T01:53:06;8.98;;;5.60;;
42094;SDS011;27753;55.724;37.612;2023-05-10T01:55:35;11.40;;;5.60;;
42094;SDS011;27753;55.724;37.612;2023-05-10T01:58:10;9.02;;;5.53;;
42094;SDS011;27753;55.724;37.612;2023-05-10T02:00:57;8.95;;;5.03;;
42094;SDS011;27753;55.724;37.612;2023-05-10T02:03:27;11.85;;;5.13;;
42094;SDS011;27753;55.724;37.612;2023-05-10T02:05:54;9.23;;;4.95;;
42094;SDS011;27753;55.724;37.612;2023-05-10T02:08:22;10.35;;;5.35;;
42094;SDS011;27753;55.724;37.612;2023-05-10T02:10:50;9.65;;;4.82;;
42094;SDS011;27753;55.724;37.612;2023-05-10T02:13:18;13.23;;;5.88;;
42094;SDS011;27753;55.724;37.612;2023-05-10T02:15:49;9.43;;;5.35;;
42094;SDS011;27753;55.724;37.612;2023-05-10T02:18:16;8.30;;;5.38;;
42094;SDS011;27753;55.724;37.612;2023-05-10T02:20:44;16.02;;;7.10;;
42094;SDS011;27753;55.724;37.612;2023-05-10T02:23:11;21.63;;;5.30;;
42094;SDS011;27753;55.724;37.612;2023-05-10T02:25:38;9.48;;;5.10;;
42094;SDS011;27753;55.724;37.612;2023-05-10T02:28:06;11.73;;;5.43;;
42094;SDS011;27753;55.724;37.612;2023-05-10T02:30:33;12.32;;;5.22;;
42094;SDS011;27753;55.724;37.612;2023-05-10T02:33:01;11.55;;;6.03;;
42094;SDS011;27753;55.724;37.612;2023-05-10T02:35:29;11.05;;;5.50;;
42094;SDS011;27753;55.724;37.612;2023-05-10T02:37:56;10.10;;;5.73;;
42094;SDS011;27753;55.724;37.612;2023-05-10T02:40:24;13.57;;;6.03;;
42094;SDS011;27753;55.724;37.612;2023-05-10T02:42:52;12.32;;;5.22;;
42094;SDS011;27753;55.724;37.612;2023-05-10T02:45:22;13.35;;;6.20;;
42094;SDS011;27753;55.724;37.612;2023-05-10T02:47:51;15.05;;;5.93;;
42094;SDS011;27753;55.724;37.612;2023-05-10T02:50:18;11.57;;;5.97;;
42094;SDS011;27753;55.724;37.612;2023-05-10T02:52:46;6.40;;;5.13;;
42094;SDS011;27753;55.724;37.612;2023-05-10T02:55:16;10.15;;;4.97;;
42094;SDS011;27753;55.724;37.612;2023-05-10T02:57:47;7.97;;;4.93;;
42094;SDS011;27753;55.724;37.612;2023-05-10T03:00:17;10.70;;;5.88;;
42094;SDS011;27753;55.724;37.612;2023-05-10T03:02:43;12.93;;;5.47;;
42094;SDS011;27753;55.724;37.612;2023-05-10T03:05:09;12.63;;;5.60;;
42094;SDS011;27753;55.724;37.612;2023-05-10T03:07:34;9.57;;;4.85;;
42094;SDS011;27753;55.724;37.612;2023-05-10T03:10:01;7.50;;;4.85;;
42094;SDS011;27753;55.724;37.612;2023-05-10T03:18:23;6.10;;;4.35;;
42094;SDS011;27753;55.724;37.612;2023-05-10T03:21:02;10.10;;;5.47;;
42094;SDS011;27753;55.724;37.612;2023-05-10T03:23:41;13.35;;;6.13;;
42094;SDS011;27753;55.724;37.612;2023-05-10T03:26:12;8.52;;;5.05;;
42094;SDS011;27753;55.724;37.612;2023-05-10T03:29:01;11.73;;;5.35;;
42094;SDS011;27753;55.724;37.612;2023-05-10T03:31:28;13.93;;;4.47;;
42094;SDS011;27753;55.724;37.612;2023-05-10T03:33:54;8.25;;;4.95;;
42094;SDS011;27753;55.724;37.612;2023-05-10T03:36:20;8.02;;;5.53;;
42094;SDS011;27753;55.724;37.612;2023-05-10T03:38:46;9.77;;;4.88;;
42094;SDS011;27753;55.724;37.612;2023-05-10T03:41:12;8.20;;;4.97;;
42094;SDS011;27753;55.724;37.612;2023-05-10T03:43:38;11.52;;;4.75;;
42094;SDS011;27753;55.724;37.612;2023-05-10T03:46:04;9.77;;;4.90;;
42094;SDS011;27753;55.724;37.612;2023-05-10T03:48:30;10.00;;;4.85;;
42094;SDS011;27753;55.724;37.612;2023-05-10T03:50:57;8.23;;;4.85;;
42094;SDS011;27753;55.724;37.612;2023-05-10T03:53:23;8.82;;;4.88;;
42094;SDS011;27753;55.724;37.612;2023-05-10T03:55:49;10.75;;;5.50;;
42094;SDS011;27753;55.724;37.612;2023-05-10T03:58:15;9.52;;;5.00;;
42094;SDS011;27753;55.724;37.612;2023-05-10T04:00:41;6.35;;;4.60;;
42094;SDS011;27753;55.724;37.612;2023-05-10T04:03:10;11.13;;;4.40;;
42094;SDS011;27753;55.724;37.612;2023-05-10T04:05:36;9.35;;;4.85;;
42094;SDS011;27753;55.724;37.612;2023-05-10T04:08:02;11.55;;;4.88;;
42094;SDS011;27753;55.724;37.612;2023-05-10T04:10:29;7.68;;;4.80;;
42094;SDS011;27753;55.724;37.612;2023-05-10T04:12:55;9.30;;;5.40;;
42094;SDS011;27753;55.724;37.612;2023-05-10T04:15:20;12.10;;;5.75;;
42094;SDS011;27753;55.724;37.612;2023-05-10T04:17:46;12.35;;;5.50;;
42094;SDS011;27753;55.724;37.612;2023-05-10T04:20:12;9.48;;;4.97;;
42094;SDS011;27753;55.724;37.612;2023-05-10T04:22:38;14.50;;;5.15;;
42094;SDS011;27753;55.724;37.612;2023-05-10T04:25:05;10.75;;;4.85;;
42094;SDS011;27753;55.724;37.612;2023-05-10T04:27:31;9.30;;;5.40;;
42094;SDS011;27753;55.724;37.612;2023-05-10T04:29:58;9.38;;;5.32;;
42094;SDS011;27753;55.724;37.612;2023-05-10T04:32:24;8.82;;;5.20;;
42094;SDS011;27753;55.724;37.612;2023-05-10T04:34:50;13.18;;;4.80;;
42094;SDS011;27753;55.724;37.612;2023-05-10T04:37:17;8.10;;;5.20;;
42094;SDS011;27753;55.724;37.612;2023-05-10T04:39:43;11.00;;;4.82;;
42094;SDS011;27753;55.724;37.612;2023-05-10T04:42:09;12.00;;;5.00;;
42094;SDS011;27753;55.724;37.612;2023-05-10T04:44:35;8.35;;;5.10;;
42094;SDS011;27753;55.724;37.612;2023-05-10T04:47:01;12.85;;;5.50;;
42094;SDS011;27753;55.724;37.612;2023-05-10T04:49:28;7.07;;;5.07;;
42094;SDS011;27753;55.724;37.612;2023-05-10T04:51:54;12.18;;;5.35;;
42094;SDS011;27753;55.724;37.612;2023-05-10T04:54:21;12.52;;;5.70;;
42094;SDS011;27753;55.724;37.612;2023-05-10T04:56:46;13.32;;;5.40;;
42094;SDS011;27753;55.724;37.612;2023-05-10T04:59:14;14.55;;;6.32;;
42094;SDS011;27753;55.724;37.612;2023-05-10T05:01:39;5.45;;;4.50;;
42094;SDS011;27753;55.724;37.612;2023-05-10T05:04:05;13.65;;;5.38;;
42094;SDS011;27753;55.724;37.612;2023-05-10T05:06:32;8.32;;;5.05;;
42094;SDS011;27753;55.724;37.612;2023-05-10T05:08:57;14.93;;;5.60;;
42094;SDS011;27753;55.724;37.612;2023-05-10T05:11:23;8.88;;;5.00;;
42094;SDS011;27753;55.724;37.612;2023-05-10T05:13:50;6.47;;;5.00;;
42094;SDS011;27753;55.724;37.612;2023-05-10T05:16:16;6.55;;;4.57;;
42094;SDS011;27753;55.724;37.612;2023-05-10T05:18:42;13.38;;;5.10;;
42094;SDS011;27753;55.724;37.612;2023-05-10T05:21:15;10.93;;;5.30;;
42094;SDS011;27753;55.724;37.612;2023-05-10T05:23:41;11.15;;;5.38;;
42094;SDS011;27753;55.724;37.612;2023-05-10T05:26:07;8.73;;;4.40;;
42094;SDS011;27753;55.724;37.612;2023-05-10T05:28:33;10.85;;;5.05;;
42094;SDS011;27753;55.724;37.612;2023-05-10T05:31:02;15.25;;;4.85;;
42094;SDS011;27753;55.724;37.612;2023-05-10T05:33:29;11.63;;;4.97;;
42094;SDS011;27753;55.724;37.612;2023-05-10T05:35:55;11.68;;;4.82;;
42094;SDS011;27753;55.724;37.612;2023-05-10T05:38:21;12.50;;;4.47;;
42094;SDS011;27753;55.724;37.612;2023-05-10T05:40:46;12.80;;;5.03;;
42094;SDS011;27753;55.724;37.612;2023-05-10T05:43:12;12.60;;;4.75;;
42094;SDS011;27753;55.724;37.612;2023-05-10T05:45:38;7.75;;;3.88;;
42094;SDS011;27753;55.724;37.612;2023-05-10T05:48:04;8.15;;;4.32;;
42094;SDS011;27753;55.724;37.612;2023-05-10T05:50:30;14.25;;;4.43;;
42094;SDS011;27753;55.724;37.612;2023-05-10T05:52:56;11.68;;;3.90;;
42094;SDS011;27753;55.724;37.612;2023-05-10T05:55:22;7.25;;;4.43;;
42094;SDS011;27753;55.724;37.612;2023-05-10T05:57:49;8.93;;;4.70;;
42094;SDS011;27753;55.724;37.612;2023-05-10T06:00:15;6.65;;;3.63;;
42094;SDS011;27753;55.724;37.612;2023-05-10T06:02:41;11.00;;;4.35;;
42094;SDS011;27753;55.724;37.612;2023-05-10T06:05:07;6.35;;;3.70;;
42094;SDS011;27753;55.724;37.612;2023-05-10T06:07:48;9.32;;;3.45;;
42094;SDS011;27753;55.724;37.612;2023-05-10T06:10:14;10.63;;;3.67;;
42094;SDS011;27753;55.724;37.612;2023-05-10T06:12:39;11.32;;;3.53;;
42094;SDS011;27753;55.724;37.612;2023-05-10T06:15:05;8.98;;;4.00;;
42094;SDS011;27753;55.724;37.612;2023-05-10T06:17:32;8.60;;;3.72;;
42094;SDS011;27753;55.724;37.612;2023-05-10T06:19:57;7.28;;;3.55;;
42094;SDS011;27753;55.724;37.612;2023-05-10T06:22:23;11.13;;;3.95;;
42094;SDS011;27753;55.724;37.612;2023-05-10T06:24:49;7.78;;;3.17;;
42094;SDS011;27753;55.724;37.612;2023-05-10T06:27:15;5.70;;;3.28;;
42094;SDS011;27753;55.724;37.612;2023-05-10T06:29:41;11.10;;;3.25;;
42094;SDS011;27753;55.724;37.612;2023-05-10T06:32:06;5.85;;;3.60;;
42094;SDS011;27753;55.724;37.612;2023-05-10T06:34:32;8.63;;;4.00;;
42094;SDS011;27753;55.724;37.612;2023-05-10T06:36:58;7.82;;;3.42;;
42094;SDS011;27753;55.724;37.612;2023-05-10T06:39:24;6.28;;;3.22;;
42094;SDS011;27753;55.724;37.612;2023-05-10T06:41:50;8.82;;;3.63;;
42094;SDS011;27753;55.724;37.612;2023-05-10T06:44:16;7.50;;;3.35;;
42094;SDS011;27753;55.724;37.612;2023-05-10T06:46:41;10.25;;;4.07;;
42094;SDS011;27753;55.724;37.612;2023-05-10T06:49:07;7.25;;;3.63;;
42094;SDS011;27753;55.724;37.612;2023-05-10T06:51:33;12.57;;;3.58;;
42094;SDS011;27753;55.724;37.612;2023-05-10T06:53:59;7.32;;;4.00;;
42094;SDS011;27753;55.724;37.612;2023-05-10T06:56:25;6.93;;;3.38;;
42094;SDS011;27753;55.724;37.612;2023-05-10T06:58:51;9.63;;;3.45;;
42094;SDS011;27753;55.724;37.612;2023-05-10T07:01:17;6.53;;;3.15;;
42094;SDS011;27753;55.724;37.612;2023-05-10T07:03:42;7.03;;;3.33;;
42094;SDS011;27753;55.724;37.612;2023-05-10T07:06:08;5.85;;;3.15;;
42094;SDS011;27753;55.724;37.612;2023-05-10T07:08:34;5.38;;;3.63;;
42094;SDS011;27753;55.724;37.612;2023-05-10T07:11:03;7.25;;;3.13;;
42094;SDS011;27753;55.724;37.612;2023-05-10T07:13:32;6.60;;;3.22;;
42094;SDS011;27753;55.724;37.612;2023-05-10T07:15:58;5.85;;;2.80;;
42094;SDS011;27753;55.724;37.612;2023-05-10T07:18:25;6.28;;;3.60;;
42094;SDS011;27753;55.724;37.612;2023-05-10T07:20:51;7.50;;;3.17;;
42094;SDS011;27753;55.724;37.612;2023-05-10T07:23:17;9.55;;;3.53;;
42094;SDS011;27753;55.724;37.612;2023-05-10T07:25:44;13.53;;;3.97;;
42094;SDS011;27753;55.724;37.612;2023-05-10T07:30:37;31.60;;;7.05;;
42094;SDS011;27753;55.724;37.612;2023-05-10T07:33:03;7.40;;;3.35;;
42094;SDS011;27753;55.724;37.612;2023-05-10T07:35:29;4.07;;;2.75;;
42094;SDS011;27753;55.724;37.612;2023-05-10T07:37:55;5.97;;;2.53;;
42094;SDS011;27753;55.724;37.612;2023-05-10T07:40:21;7.60;;;3.08;;
42094;SDS011;27753;55.724;37.612;2023-05-10T07:42:47;6.18;;;3.03;;
42094;SDS011;27753;55.724;37.612;2023-05-10T07:45:12;8.20;;;4.63;;
42094;SDS011;27753;55.724;37.612;2023-05-10T07:47:38;7.95;;;2.65;;
42094;SDS011;27753;55.724;37.612;2023-05-10T07:50:04;4.93;;;2.58;;
42094;SDS011;27753;55.724;37.612;2023-05-10T07:52:31;5.50;;;2.72;;
42094;SDS011;27753;55.724;37.612;2023-05-10T07:54:56;3.85;;;2.35;;
42094;SDS011;27753;55.724;37.612;2023-05-10T07:57:22;5.70;;;2.63;;
42094;SDS011;27753;55.724;37.612;2023-05-10T07:59:48;6.20;;;3.20;;
42094;SDS011;27753;55.724;37.612;2023-05-10T08:02:14;3.75;;;2.65;;
42094;SDS011;27753;55.724;37.612;2023-05-10T08:04:40;3.30;;;2.15;;
42094;SDS011;27753;55.724;37.612;2023-05-10T08:07:06;6.55;;;2.38;;
42094;SDS011;27753;55.724;37.612;2023-05-10T08:09:32;6.00;;;2.58;;
42094;SDS011;27753;55.724;37.612;2023-05-10T08:11:58;3.15;;;2.00;;
42094;SDS011;27753;55.724;37.612;2023-05-10T08:14:25;5.68;;;2.20;;
42094;SDS011;27753;55.724;37.612;2023-05-10T08:16:52;3.25;;;2.55;;
42094;SDS011;27753;55.724;37.612;2023-05-10T08:19:18;5.13;;;2.92;;
42094;SDS011;27753;55.724;37.612;2023-05-10T08:21:45;3.03;;;2.08;;
42094;SDS011;27753;55.724;37.612;2023-05-10T08:24:10;4.70;;;2.17;;
42094;SDS011;27753;55.724;37.612;2023-05-10T08:26:36;4.93;;;2.20;;
42094;SDS011;27753;55.724;37.612;2023-05-10T08:29:02;3.08;;;1.92;;
42094;SDS011;27753;55.724;37.612;2023-05-10T08:31:28;5.03;;;2.08;;
42094;SDS011;27753;55.724;37.612;2023-05-10T08:33:54;4.67;;;2.30;;
42094;SDS011;27753;55.724;37.612;2023-05-10T08:36:20;7.07;;;2.10;;
42094;SDS011;27753;55.724;37.612;2023-05-10T08:38:51;3.45;;;2.83;;
42094;SDS011;27753;55.724;37.612;2023-05-10T08:41:21;4.80;;;2.10;;
42094;SDS011;27753;55.724;37.612;2023-05-10T08:43:54;6.88;;;2.13;;
42094;SDS011;27753;55.724;37.612;2023-05-10T08:46:21;4.47;;;2.28;;
42094;SDS011;27753;55.724;37.612;2023-05-10T08:48:48;3.17;;;2.17;;
42094;SDS011;27753;55.724;37.612;2023-05-10T08:51:19;6.28;;;2.38;;
42094;SDS011;27753;55.724;37.612;2023-05-10T08:53:51;5.30;;;2.45;;
42094;SDS011;27753;55.724;37.612;2023-05-10T08:56:18;5.13;;;2.75;;
42094;SDS011;27753;55.724;37.612;2023-05-10T08:58:45;8.48;;;2.83;;
42094;SDS011;27753;55.724;37.612;2023-05-10T09:03:38;4.70;;;2.33;;
42094;SDS011;27753;55.724;37.612;2023-05-10T09:08:31;8.65;;;2.15;;
42094;SDS011;27753;55.724;37.612;2023-05-10T09:10:58;3.60;;;1.98;;
42094;SDS011;27753;55.724;37.612;2023-05-10T09:13:26;6.40;;;2.30;;
42094;SDS011;27753;55.724;37.612;2023-05-10T09:15:53;3.45;;;1.77;;
42094;SDS011;27753;55.724;37.612;2023-05-10T09:18:19;2.90;;;2.00;;
42094;SDS011;27753;55.724;37.612;2023-05-10T09:20:48;3.65;;;1.85;;
42094;SDS011;27753;55.724;37.612;2023-05-10T09:23:14;6.30;;;1.90;;
42094;SDS011;27753;55.724;37.612;2023-05-10T09:25:43;7.60;;;2.63;;
42094;SDS011;27753;55.724;37.612;2023-05-10T09:28:09;4.20;;;2.15;;
42094;SDS011;27753;55.724;37.612;2023-05-10T09:30:35;5.00;;;2.08;;
42094;SDS011;27753;55.724;37.612;2023-05-10T09:33:01;5.35;;;2.38;;
42094;SDS011;27753;55.724;37.612;2023-05-10T09:35:28;6.20;;;2.33;;
42094;SDS011;27753;55.724;37.612;2023-05-10T09:37:58;5.25;;;2.55;;
42094;SDS011;27753;55.724;37.612;2023-05-10T09:40:26;3.45;;;2.28;;
42094;SDS011;27753;55.724;37.612;2023-05-10T09:43:00;4.68;;;2.03;;
42094;SDS011;27753;55.724;37.612;2023-05-10T09:45:27;4.70;;;2.30;;
42094;SDS011;27753;55.724;37.612;2023-05-10T09:47:54;4.55;;;2.42;;
42094;SDS011;27753;55.724;37.612;2023-05-10T09:50:21;6.45;;;2.58;;
42094;SDS011;27753;55.724;37.612;2023-05-10T09:52:48;5.70;;;2.80;;
42094;SDS011;27753;55.724;37.612;2023-05-10T09:55:19;8.38;;;2.97;;
42094;SDS011;27753;55.724;37.612;2023-05-10T09:57:47;8.38;;;2.60;;
42094;SDS011;27753;55.724;37.612;2023-05-10T10:00:18;4.10;;;2.63;;
42094;SDS011;27753;55.724;37.612;2023-05-10T10:02:45;4.35;;;2.67;;
42094;SDS011;27753;55.724;37.612;2023-05-10T10:05:12;5.40;;;2.42;;
42094;SDS011;27753;55.724;37.612;2023-05-10T10:07:38;5.27;;;2.80;;
42094;SDS011;27753;55.724;37.612;2023-05-10T10:10:05;4.75;;;2.42;;
42094;SDS011;27753;55.724;37.612;2023-05-10T10:12:36;4.78;;;3.63;;
42094;SDS011;27753;55.724;37.612;2023-05-10T10:15:02;8.43;;;4.55;;
42094;SDS011;27753;55.724;37.612;2023-05-10T10:17:30;6.50;;;3.20;;
42094;SDS011;27753;55.724;37.612;2023-05-10T10:19:57;3.70;;;3.20;;
42094;SDS011;27753;55.724;37.612;2023-05-10T10:22:23;7.88;;;2.90;;
42094;SDS011;27753;55.724;37.612;2023-05-10T10:24:50;10.55;;;4.35;;
42094;SDS011;27753;55.724;37.612;2023-05-10T10:32:42;4.85;;;3.03;;
42094;SDS011;27753;55.724;37.612;2023-05-10T10:35:14;3.08;;;2.45;;
42094;SDS011;27753;55.724;37.612;2023-05-10T10:37:42;6.90;;;3.50;;
42094;SDS011;27753;55.724;37.612;2023-05-10T10:40:22;4.82;;;3.05;;
42094;SDS011;27753;55.724;37.612;2023-05-10T10:42:52;5.43;;;2.80;;
42094;SDS011;27753;55.724;37.612;2023-05-10T10:45:19;9.05;;;3.28;;
42094;SDS011;27753;55.724;37.612;2023-05-10T10:47:46;4.22;;;2.80;;
42094;SDS011;27753;55.724;37.612;2023-05-10T10:50:12;5.78;;;2.80;;
42094;SDS011;27753;55.724;37.612;2023-05-10T10:52:41;4.70;;;2.45;;
42094;SDS011;27753;55.724;37.612;2023-05-10T10:55:18;7.18;;;3.67;;
42094;SDS011;27753;55.724;37.612;2023-05-10T10:57:48;3.60;;;2.72;;
42094;SDS011;27753;55.724;37.612;2023-05-10T11:16:11;7.65;;;5.57;;
42094;SDS011;27753;55.724;37.612;2023-05-10T11:18:58;6.28;;;2.97;;
42094;SDS011;27753;55.724;37.612;2023-05-10T11:21:24;4.82;;;2.95;;
42094;SDS011;27753;55.724;37.612;2023-05-10T11:23:55;5.22;;;3.00;;
42094;SDS011;27753;55.724;37.612;2023-05-10T11:26:25;5.05;;;2.55;;
42094;SDS011;27753;55.724;37.612;2023-05-10T11:28:55;7.55;;;3.05;;
42094;SDS011;27753;55.724;37.612;2023-05-10T11:31:21;5.85;;;3.08;;
42094;SDS011;27753;55.724;37.612;2023-05-10T11:33:50;6.88;;;3.63;;
42094;SDS011;27753;55.724;37.612;2023-05-10T11:36:18;7.40;;;2.67;;
42094;SDS011;27753;55.724;37.612;2023-05-10T11:38:47;4.25;;;2.53;;
42094;SDS011;27753;55.724;37.612;2023-05-10T11:41:14;3.60;;;2.43;;
42094;SDS011;27753;55.724;37.612;2023-05-10T11:43:42;4.75;;;2.83;;
42094;SDS011;27753;55.724;37.612;2023-05-10T11:46:11;7.03;;;2.83;;
42094;SDS011;27753;55.724;37.612;2023-05-10T11:48:39;5.00;;;2.50;;
42094;SDS011;27753;55.724;37.612;2023-05-10T11:51:06;7.35;;;3.20;;
42094;SDS011;27753;55.724;37.612;2023-05-10T11:53:33;6.30;;;3.05;;
42094;SDS011;27753;55.724;37.612;2023-05-10T11:56:02;3.20;;;2.38;;
42094;SDS011;27753;55.724;37.612;2023-05-10T11:58:32;4.05;;;2.55;;
42094;SDS011;27753;55.724;37.612;2023-05-10T12:00:59;3.00;;;2.25;;
42094;SDS011;27753;55.724;37.612;2023-05-10T12:03:25;9.90;;;3.30;;
42094;SDS011;27753;55.724;37.612;2023-05-10T12:05:52;4.22;;;2.97;;
42094;SDS011;27753;55.724;37.612;2023-05-10T12:08:20;5.15;;;2.75;;
42094;SDS011;27753;55.724;37.612;2023-05-10T12:10:51;3.28;;;2.38;;
42094;SDS011;27753;55.724;37.612;2023-05-10T12:13:18;5.78;;;3.20;;
42094;SDS011;27753;55.724;37.612;2023-05-10T12:18:12;5.13;;;2.70;;
42094;SDS011;27753;55.724;37.612;2023-05-10T12:20:39;6.00;;;2.92;;
42094;SDS011;27753;55.724;37.612;2023-05-10T12:23:05;6.63;;;2.95;;
42094;SDS011;27753;55.724;37.612;2023-05-10T12:25:35;5.40;;;3.42;;
42094;SDS011;27753;55.724;37.612;2023-05-10T12:28:03;5.75;;;3.00;;
42094;SDS011;27753;55.724;37.612;2023-05-10T12:30:31;8.00;;;3.00;;
42094;SDS011;27753;55.724;37.612;2023-05-10T12:35:45;5.10;;;2.90;;
42094;SDS011;27753;55.724;37.612;2023-05-10T12:40:59;7.35;;;2.28;;
42094;SDS011;27753;55.724;37.612;2023-05-10T12:43:26;5.50;;;2.72;;
42094;SDS011;27753;55.724;37.612;2023-05-10T12:45:52;4.50;;;2.30;;
42094;SDS011;27753;55.724;37.612;2023-05-10T12:48:18;7.80;;;2.63;;
42094;SDS011;27753;55.724;37.612;2023-05-10T12:50:44;6.13;;;2.90;;
42094;SDS011;27753;55.724;37.612;2023-05-10T12:53:11;7.00;;;2.88;;
42094;SDS011;27753;55.724;37.612;2023-05-10T12:55:38;7.47;;;2.63;;
42094;SDS011;27753;55.724;37.612;2023-05-10T12:58:04;4.20;;;2.67;;
42094;SDS011;27753;55.724;37.612;2023-05-10T13:00:30;9.27;;;3.70;;
42094;SDS011;27753;55.724;37.612;2023-05-10T13:02:56;6.18;;;2.80;;
42094;SDS011;27753;55.724;37.612;2023-05-10T13:05:22;5.47;;;2.60;;
42094;SDS011;27753;55.724;37.612;2023-05-10T13:07:48;6.90;;;3.63;;
42094;SDS011;27753;55.724;37.612;2023-05-10T13:10:14;7.68;;;3.00;;
42094;SDS011;27753;55.724;37.612;2023-05-10T13:12:40;7.45;;;3.00;;
42094;SDS011;27753;55.724;37.612;2023-05-10T13:15:06;4.53;;;2.75;;
42094;SDS011;27753;55.724;37.612;2023-05-10T13:17:32;7.28;;;3.30;;
42094;SDS011;27753;55.724;37.612;2023-05-10T13:19:58;3.97;;;2.45;;
42094;SDS011;27753;55.724;37.612;2023-05-10T13:22:24;3.95;;;2.55;;
42094;SDS011;27753;55.724;37.612;2023-05-10T13:24:50;6.65;;;2.92;;
42094;SDS011;27753;55.724;37.612;2023-05-10T13:27:16;5.90;;;2.90;;
42094;SDS011;27753;55.724;37.612;2023-05-10T13:29:42;6.38;;;2.38;;
42094;SDS011;27753;55.724;37.612;2023-05-10T13:32:08;4.70;;;2.63;;
42094;SDS011;27753;55.724;37.612;2023-05-10T13:34:33;5.43;;;2.80;;
42094;SDS011;27753;55.724;37.612;2023-05-10T13:37:00;3.45;;;2.38;;
42094;SDS011;27753;55.724;37.612;2023-05-10T13:39:26;7.72;;;2.53;;
42094;SDS011;27753;55.724;37.612;2023-05-10T13:41:54;6.55;;;2.72;;
42094;SDS011;27753;55.724;37.612;2023-05-10T13:44:20;4.72;;;2.92;;
42094;SDS011;27753;55.724;37.612;2023-05-10T13:46:46;6.18;;;2.55;;
42094;SDS011;27753;55.724;37.612;2023-05-10T13:49:13;4.83;;;2.33;;
42094;SDS011;27753;55.724;37.612;2023-05-10T13:51:38;6.30;;;2.38;;
42094;SDS011;27753;55.724;37.612;2023-05-10T13:54:04;4.68;;;2.88;;
42094;SDS011;27753;55.724;37.612;2023-05-10T13:56:30;5.50;;;3.13;;
42094;SDS011;27753;55.724;37.612;2023-05-10T13:58:56;14.52;;;3.50;;
42094;SDS011;27753;55.724;37.612;2023-05-10T14:01:23;6.22;;;3.15;;
42094;SDS011;27753;55.724;37.612;2023-05-10T14:03:49;8.55;;;3.00;;
42094;SDS011;27753;55.724;37.612;2023-05-10T14:06:15;3.75;;;2.33;;
42094;SDS011;27753;55.724;37.612;2023-05-10T14:08:41;12.55;;;3.40;;
42094;SDS011;27753;55.724;37.612;2023-05-10T14:11:07;4.05;;;2.42;;
42094;SDS011;27753;55.724;37.612;2023-05-10T14:13:33;6.47;;;3.20;;
42094;SDS011;27753;55.724;37.612;2023-05-10T14:15:59;8.20;;;3.35;;
42094;SDS011;27753;55.724;37.612;2023-05-10T14:18:26;6.60;;;2.45;;
42094;SDS011;27753;55.724;37.612;2023-05-10T14:20:52;14.10;;;3.97;;
42094;SDS011;27753;55.724;37.612;2023-05-10T14:23:18;11.27;;;3.35;;
42094;SDS011;27753;55.724;37.612;2023-05-10T14:25:49;8.98;;;3.35;;
42094;SDS011;27753;55.724;37.612;2023-05-10T14:28:16;4.78;;;3.08;;
42094;SDS011;27753;55.724;37.612;2023-05-10T14:30:43;3.88;;;3.00;;
42094;SDS011;27753;55.724;37.612;2023-05-10T14:33:09;6.65;;;2.53;;
42094;SDS011;27753;55.724;37.612;2023-05-10T14:35:35;6.55;;;3.25;;
42094;SDS011;27753;55.724;37.612;2023-05-10T14:38:02;12.13;;;3.10;;
42094;SDS011;27753;55.724;37.612;2023-05-10T14:40:28;13.45;;;3.40;;
42094;SDS011;27753;55.724;37.612;2023-05-10T14:42:55;8.73;;;3.63;;
42094;SDS011;27753;55.724;37.612;2023-05-10T14:45:21;9.80;;;2.92;;
42094;SDS011;27753;55.724;37.612;2023-05-10T14:47:48;5.17;;;3.07;;
42094;SDS011;27753;55.724;37.612;2023-05-10T14:50:15;10.20;;;3.03;;
42094;SDS011;27753;55.724;37.612;2023-05-10T14:52:44;8.18;;;2.70;;
42094;SDS011;27753;55.724;37.612;2023-05-10T14:55:10;3.47;;;2.78;;
42094;SDS011;27753;55.724;37.612;2023-05-10T14:57:36;5.90;;;2.72;;
42094;SDS011;27753;55.724;37.612;2023-05-10T15:00:02;5.88;;;3.20;;
42094;SDS011;27753;55.724;37.612;2023-05-10T15:02:30;9.90;;;2.95;;
42094;SDS011;27753;55.724;37.612;2023-05-10T15:04:56;6.75;;;3.35;;
42094;SDS011;27753;55.724;37.612;2023-05-10T15:07:23;7.20;;;3.05;;
42094;SDS011;27753;55.724;37.612;2023-05-10T15:09:52;12.90;;;4.90;;
42094;SDS011;27753;55.724;37.612;2023-05-10T15:12:19;7.07;;;3.40;;
42094;SDS011;27753;55.724;37.612;2023-05-10T15:14:45;7.13;;;2.80;;
42094;SDS011;27753;55.724;37.612;2023-05-10T15:17:14;6.18;;;2.90;;
42094;SDS011;27753;55.724;37.612;2023-05-10T15:19:41;8.10;;;3.33;;
42094;SDS011;27753;55.724;37.612;2023-05-10T15:22:07;7.00;;;3.17;;
42094;SDS011;27753;55.724;37.612;2023-05-10T15:24:34;8.27;;;2.85;;
42094;SDS011;27753;55.724;37.612;2023-05-10T15:27:00;5.40;;;2.95;;